Terminal Aerodrome Forecast
Issued by NWS

Home | Current Version | Previous Version | Text Only | Print | Product List | Glossary On
Versions: 1 2 3 4 5 6 7 8 9 10 11 12 13 14 15 16 17 18 19 20 21 22 23 24 25 26 27
000
FTUS45 KRIW 242338
TAFPNA
TAF
KPNA 242338Z 2500/2524 31009KT 1SM -SN SCT004 OVC008
     FM250100 30010G15KT P6SM VCSH SCT012 BKN025
     FM250400 31008KT P6SM SCT050 BKN080
     FM251600 31016G26KT P6SM VCSH SCT025 BKN040
     FM252000 33014G22KT P6SM SCT030 BKN060
      AMD LTD TO CLD VIS AND WIND=

USA.gov is the U.S. government's official web portal to all federal, state and local government web resources and services.